Time;durP1;ratioP1;P1;durP2;ratioP2;P2;SDS_P1;SDS_P2;PMS_P1;PMS_P2;Temp;Humidity;BMP_temperature;BMP_pressure;BME280_temperature;BME280_humidity;BME280_pressure;Samples;Min_cycle;Max_cycle;Signal;HPM_P1;HPM_P2
2023/09/04 00:03:03;;;;;;;;;;;;;;;19.68;78.88;101352.69;668517;1263;126123;-74
2023/09/04 00:18:07;;;;;;;;;;;;;;;19.67;78.51;101342.87;668713;1260;125337;-76
2023/09/04 00:33:10;;;;;;;;;;;;;;;19.24;79.66;101337.64;668836;1263;125642;-75
2023/09/04 00:48:13;;;;;;;;;;;;;;;18.95;79.01;101333.67;668720;1257;125617;-76
2023/09/04 01:03:17;;;;;;;;;;;;;;;18.35;79.86;101357.13;668232;1263;127547;-76
2023/09/04 01:18:21;;;;;;;;;;;;;;;17.84;80.55;101361.06;668583;1264;125838;-77
2023/09/04 01:33:28;;;;;;;;;;;;;;;17.14;80.73;101362.02;669117;1263;126707;-75
2023/09/04 01:48:33;;;;;;;;;;;;;;;16.88;82.03;101367.76;669123;1258;125828;-75
2023/09/04 02:03:38;;;;;;;;;;;;;;;16.71;83.47;101393.06;668984;1263;126219;-76
2023/09/04 02:18:43;;;;;;;;;;;;;;;16.60;84.53;101390.42;668855;1262;125472;-78
2023/09/04 02:33:46;;;;;;;;;;;;;;;16.65;86.53;101395.71;668862;1260;126135;-76
2023/09/04 02:48:50;;;;;;;;;;;;;;;16.85;86.28;101402.68;668863;1263;125733;-76
2023/09/04 03:03:54;;;;;;;;;;;;;;;16.87;87.47;101398.77;675575;1263;126748;-77
2023/09/04 03:18:58;;;;;;;;;;;;;;;16.87;87.35;101403.21;670676;1263;126106;-76
2023/09/04 03:34:01;;;;;;;;;;;;;;;16.72;91.92;101386.10;675797;1267;124549;-74
2023/09/04 03:55:17;;;;;;;;;;;;;;;16.83;91.61;101387.16;655517;1298;544151;-73
2023/09/04 04:10:21;;;;;;;;;;;;;;;16.83;92.13;101384.70;670007;1274;124316;-75
2023/09/04 04:25:24;;;;;;;;;;;;;;;17.15;91.86;101396.31;672737;1274;124808;-77
2023/09/04 04:40:27;;;;;;;;;;;;;;;17.29;93.75;101437.84;673193;1271;123790;-74
2023/09/04 04:55:32;;;;;;;;;;;;;;;17.42;92.98;101440.48;674669;1273;124156;-76
2023/09/04 05:10:35;;;;;;;;;;;;;;;17.62;92.21;101451.39;673981;1272;125720;-76
2023/09/04 05:25:46;;;;;;;;;;;;;;;18.06;91.74;101458.52;668355;1271;124906;-77
2023/09/04 05:40:58;;;;;;;;;;;;;;;18.24;92.06;101463.07;665124;1282;125745;-76
2023/09/04 05:56:05;;;;;;;;;;;;;;;18.73;90.71;101491.73;669803;1265;125523;-77
2023/09/04 06:11:08;;;;;;;;;;;;;;;19.20;90.55;101518.39;668378;1266;125056;-76
2023/09/04 06:26:12;;;;;;;;;;;;;;;19.35;91.67;101526.27;671583;1266;125706;-75
2023/09/04 06:41:16;;;;;;;;;;;;;;;19.60;91.65;101516.98;671814;1268;125382;-75
2023/09/04 06:56:19;;;;;;;;;;;;;;;21.98;88.22;101536.88;670749;1278;125642;-76
2023/09/04 07:11:22;;;;;;;;;;;;;;;25.42;76.71;101546.64;670062;1281;125542;-76
2023/09/04 07:26:25;;;;;;;;;;;;;;;25.48;72.99;101540.34;666653;1267;124524;-76
2023/09/04 07:41:29;;;;;;;;;;;;;;;25.89;71.88;101542.45;667563;1279;125922;-79
2023/09/04 07:56:32;;;;;;;;;;;;;;;25.33;72.72;101549.81;668068;1264;125314;-76
2023/09/04 08:11:44;;;;;;;;;;;;;;;25.39;72.92;101553.42;671122;1265;124885;-78
2023/09/04 08:26:47;;;;;;;;;;;;;;;25.30;72.76;101561.86;670491;1267;125428;-76
2023/09/04 08:41:50;;;;;;;;;;;;;;;24.89;73.94;101556.62;672383;1265;125476;-76
2023/09/04 08:56:53;;;;;;;;;;;;;;;25.69;71.99;101565.88;668943;1264;124855;-76
2023/09/04 09:11:56;;;;;;;;;;;;;;;26.96;69.24;101556.66;667519;1267;125878;-76
2023/09/04 09:26:59;;;;;;;;;;;;;;;28.07;65.42;101550.80;669020;1275;125555;-76
2023/09/04 09:42:03;;;;;;;;;;;;;;;28.68;65.21;101555.69;669861;1266;124954;-76
2023/09/04 09:57:08;;;;;;;;;;;;;;;29.93;62.21;101559.18;669221;1266;124678;-76
2023/09/04 10:12:16;;;;;;;;;;;;;;;30.98;60.39;101550.67;669130;1270;126575;-76
2023/09/04 10:27:19;;;;;;;;;;;;;;;31.35;57.29;101542.80;670109;1278;125603;-76
2023/09/04 10:42:23;;;;;;;;;;;;;;;29.92;56.29;101535.11;669864;1276;125851;-76
2023/09/04 10:57:46;;;;;;;;;;;;;;;29.26;57.29;101526.71;668857;1269;124710;-76
2023/09/04 11:12:50;;;;;;;;;;;;;;;29.80;56.85;101536.27;671059;1265;124554;-76
2023/09/04 11:27:53;;;;;;;;;;;;;;;30.19;57.52;101520.77;672090;1276;125919;-75
2023/09/04 11:42:57;;;;;;;;;;;;;;;30.47;57.10;101518.14;676224;1267;125090;-77
2023/09/04 11:58:02;;;;;;;;;;;;;;;30.51;55.45;101519.42;678983;1277;125605;-76
2023/09/04 12:13:05;;;;;;;;;;;;;;;29.48;55.89;101525.42;675233;1267;125662;-77
2023/09/04 12:28:11;;;;;;;;;;;;;;;29.04;56.99;101531.40;671763;1276;125743;-77
2023/09/04 12:43:15;;;;;;;;;;;;;;;28.64;57.99;101524.04;671347;1265;124530;-77
2023/09/04 12:58:18;;;;;;;;;;;;;;;27.99;57.40;101506.98;677670;1267;125560;-76
2023/09/04 13:13:21;;;;;;;;;;;;;;;27.90;57.58;101496.48;667103;1267;126114;-75
2023/09/04 13:28:24;;;;;;;;;;;;;;;27.75;58.70;101497.36;666796;1267;124594;-76
2023/09/04 13:43:29;;;;;;;;;;;;;;;27.75;59.00;101499.27;667009;1261;125362;-76
2023/09/04 13:58:32;;;;;;;;;;;;;;;27.88;58.88;101490.56;672447;1276;125186;-75
2023/09/04 14:13:36;;;;;;;;;;;;;;;28.39;58.26;101493.02;669031;1267;124582;-75
2023/09/04 14:28:39;;;;;;;;;;;;;;;28.27;58.39;101484.52;667618;1267;125606;-76
2023/09/04 14:43:43;;;;;;;;;;;;;;;27.97;59.11;101484.44;667234;1276;124393;-76
2023/09/04 14:58:47;;;;;;;;;;;;;;;27.64;59.47;101482.73;671407;1264;128355;-76
2023/09/04 15:13:50;;;;;;;;;;;;;;;27.66;59.04;101476.98;667700;1267;126213;-76
2023/09/04 15:28:54;;;;;;;;;;;;;;;27.89;59.48;101467.88;667629;1264;124494;-76
2023/09/04 15:43:59;;;;;;;;;;;;;;;27.19;60.08;101462.68;668085;1264;125204;-76
2023/09/04 15:59:02;;;;;;;;;;;;;;;26.20;62.77;101471.95;668107;1264;148126;-78
2023/09/04 16:14:06;;;;;;;;;;;;;;;25.78;65.07;101467.60;668125;1260;124825;-76
2023/09/04 16:29:10;;;;;;;;;;;;;;;25.56;65.88;101469.70;667958;1263;125270;-76
2023/09/04 16:44:13;;;;;;;;;;;;;;;25.33;66.25;101464.09;668038;1264;124608;-75
2023/09/04 16:59:16;;;;;;;;;;;;;;;24.61;69.14;101457.09;667873;1274;126283;-76
2023/09/04 17:28:51;;;;;;;;;;;;;;;22.95;72.12;101467.94;648975;1301;544203;-76
2023/09/04 17:43:58;;;;;;;;;;;;;;;22.46;73.93;101475.89;663418;1274;125061;-76
2023/09/04 17:59:02;;;;;;;;;;;;;;;21.97;74.90;101481.66;664170;1273;124486;-77
2023/09/04 18:14:05;;;;;;;;;;;;;;;22.02;75.63;101489.42;663500;1275;124914;-75
2023/09/04 18:29:09;;;;;;;;;;;;;;;21.94;76.49;101494.67;663547;1274;126008;-75
2023/09/04 18:44:13;;;;;;;;;;;;;;;21.85;77.88;101488.02;663419;1274;125941;-75
2023/09/04 18:59:17;;;;;;;;;;;;;;;22.12;78.19;101483.77;663894;1275;126164;-75
2023/09/04 19:14:21;;;;;;;;;;;;;;;22.06;79.08;101482.18;665134;1274;125133;-75
2023/09/04 19:29:25;;;;;;;;;;;;;;;22.28;78.70;101488.05;663641;1273;124876;-76
2023/09/04 19:44:31;;;;;;;;;;;;;;;22.29;79.28;101496.48;663345;1274;125247;-76
2023/09/04 19:59:37;;;;;;;;;;;;;;;22.25;79.82;101504.73;663044;1274;125131;-76
2023/09/04 20:14:40;;;;;;;;;;;;;;;22.26;80.10;101514.77;662937;1286;127054;-76
2023/09/04 20:29:44;;;;;;;;;;;;;;;22.07;80.58;101516.51;663756;1274;126034;-76
2023/09/04 20:44:47;;;;;;;;;;;;;;;22.14;80.41;101517.77;663112;1275;126266;-76
2023/09/04 20:59:51;;;;;;;;;;;;;;;22.03;81.33;101502.55;663099;1274;125704;-76
2023/09/04 23:33:36;;;;;;;;;;;;;;;21.42;84.47;101502.98;667832;1262;126702;-75
2023/09/04 23:48:41;;;;;;;;;;;;;;;21.36;83.94;101498.31;668473;1264;126261;-76
